createdAt,value
2022-11-12T00:01:47.371Z,9.13
2022-11-12T00:04:32.894Z,9.93
2022-11-12T00:07:18.295Z,8.48
2022-11-12T00:10:05.207Z,6.10
2022-11-12T00:12:50.908Z,6.40
2022-11-12T00:15:36.553Z,8.00
2022-11-12T00:18:21.893Z,8.68
2022-11-12T00:21:07.750Z,8.57
2022-11-12T00:23:53.001Z,6.35
2022-11-12T00:26:38.589Z,8.35
2022-11-12T00:29:24.573Z,4.63
2022-11-12T00:32:10.192Z,7.05
2022-11-12T00:34:56.311Z,5.85
2022-11-12T00:37:41.621Z,8.80
2022-11-12T00:40:28.040Z,5.05
2022-11-12T00:43:13.618Z,9.88
2022-11-12T00:46:01.807Z,7.13
2022-11-12T00:48:48.657Z,5.30
2022-11-12T00:51:34.900Z,6.80
2022-11-12T00:54:20.171Z,5.18
2022-11-12T00:57:05.916Z,6.90
2022-11-12T00:59:51.152Z,7.05
2022-11-12T01:02:42.444Z,10.23
2022-11-12T01:05:30.146Z,7.03
2022-11-12T01:08:15.812Z,9.57
2022-11-12T01:11:18.311Z,4.90
2022-11-12T01:14:09.440Z,6.55
2022-11-12T01:16:54.914Z,7.53
2022-11-12T01:19:40.514Z,9.05
2022-11-12T01:22:25.905Z,5.55
2022-11-12T01:25:11.383Z,7.65
2022-11-12T01:27:58.058Z,9.18
2022-11-12T01:30:43.916Z,6.78
2022-11-12T01:33:29.636Z,7.53
2022-11-12T01:36:16.843Z,6.30
2022-11-12T01:39:04.366Z,5.15
2022-11-12T01:41:51.079Z,7.70
2022-11-12T01:44:40.242Z,6.13
2022-11-12T01:47:34.183Z,6.72
2022-11-12T01:50:34.347Z,7.07
2022-11-12T01:53:22.494Z,8.07
2022-11-12T01:56:08.792Z,5.28
2022-11-12T01:58:59.921Z,4.07
2022-11-12T02:01:45.633Z,8.52
2022-11-12T02:04:33.773Z,8.73
2022-11-12T02:07:22.459Z,8.90
2022-11-12T02:10:09.925Z,6.25
2022-11-12T02:13:15.053Z,7.13
2022-11-12T02:16:03.383Z,7.95
2022-11-12T02:18:48.956Z,6.50
2022-11-12T02:21:35.381Z,7.70
2022-11-12T02:24:20.673Z,6.68
2022-11-12T02:27:06.921Z,6.10
2022-11-12T02:29:52.637Z,7.18
2022-11-12T02:32:38.348Z,10.45
2022-11-12T02:35:23.624Z,6.30
2022-11-12T02:38:10.038Z,7.53
2022-11-12T02:40:55.520Z,7.95
2022-11-12T02:43:41.713Z,7.68
2022-11-12T02:46:27.511Z,7.28
2022-11-12T02:49:13.124Z,13.30
2022-11-12T02:51:58.548Z,9.13
2022-11-12T02:54:44.432Z,6.88
2022-11-12T02:57:30.403Z,9.55
2022-11-12T03:00:18.779Z,12.57
2022-11-12T03:03:05.275Z,5.53
2022-11-12T03:05:59.980Z,7.13
2022-11-12T03:08:45.857Z,6.88
2022-11-12T03:11:31.918Z,7.07
2022-11-12T03:14:17.197Z,4.97
2022-11-12T03:17:05.544Z,8.15
2022-11-12T03:19:51.246Z,5.30
2022-11-12T03:22:37.922Z,6.55
2022-11-12T03:25:24.594Z,5.43
2022-11-12T03:28:13.017Z,5.80
2022-11-12T03:31:00.576Z,6.03
2022-11-12T03:33:46.601Z,6.30
2022-11-12T03:36:32.464Z,5.03
2022-11-12T03:39:18.239Z,4.63
2022-11-12T03:42:04.517Z,4.60
2022-11-12T03:44:50.319Z,4.75
2022-11-12T03:47:35.862Z,3.75
2022-11-12T03:50:23.861Z,4.90
2022-11-12T03:53:09.385Z,5.38
2022-11-12T03:55:55.019Z,5.22
2022-11-12T03:58:40.695Z,4.80
2022-11-12T04:01:26.227Z,7.53
2022-11-12T04:04:12.016Z,5.68
2022-11-12T04:07:16.256Z,4.72
2022-11-12T04:10:01.963Z,6.43
2022-11-12T04:13:09.146Z,7.53
2022-11-12T04:16:27.555Z,6.35
2022-11-12T04:19:32.075Z,6.05
2022-11-12T04:22:17.657Z,5.38
2022-11-12T04:25:22.094Z,8.60
2022-11-12T04:28:07.488Z,8.65
2022-11-12T04:30:52.874Z,7.82
2022-11-12T04:33:38.457Z,8.18
2022-11-12T04:36:24.030Z,4.22
2022-11-12T04:39:09.426Z,7.53
2022-11-12T04:42:13.630Z,9.70
2022-11-12T04:45:04.978Z,5.50
2022-11-12T04:47:50.540Z,6.45
2022-11-12T04:50:36.713Z,6.68
2022-11-12T04:53:23.579Z,5.82
2022-11-12T04:56:09.411Z,7.10
2022-11-12T04:58:54.939Z,7.88
2022-11-12T05:01:40.512Z,7.15
2022-11-12T05:04:28.838Z,14.25
2022-11-12T05:07:15.437Z,13.77
2022-11-12T05:10:01.152Z,7.13
2022-11-12T05:12:46.370Z,8.65
2022-11-12T05:15:32.192Z,4.75
2022-11-12T05:18:17.511Z,5.63
2022-11-12T05:21:22.931Z,7.88
2022-11-12T05:24:17.852Z,6.80
2022-11-12T05:27:17.932Z,6.07
2022-11-12T05:30:04.638Z,8.10
2022-11-12T05:32:50.327Z,11.75
2022-11-12T05:35:35.976Z,10.80
2022-11-12T05:38:21.251Z,11.95
2022-11-12T05:41:06.819Z,8.35
2022-11-12T05:43:52.167Z,10.80
2022-11-12T05:46:37.717Z,9.48
2022-11-12T05:49:23.209Z,8.60
2022-11-12T05:52:08.660Z,10.25
2022-11-12T05:54:54.480Z,9.63
2022-11-12T05:57:42.337Z,11.27
2022-11-12T06:00:28.108Z,8.73
2022-11-12T06:03:14.242Z,11.77
2022-11-12T06:05:59.908Z,13.40
2022-11-12T06:08:45.460Z,13.82
2022-11-12T06:11:31.375Z,9.55
2022-11-12T06:14:17.037Z,13.57
2022-11-12T06:17:02.675Z,9.32
2022-11-12T06:19:48.154Z,9.85
2022-11-12T06:22:34.018Z,9.50
2022-11-12T06:25:19.948Z,11.93
2022-11-12T06:28:05.706Z,8.73
2022-11-12T06:30:51.465Z,9.63
2022-11-12T06:33:36.897Z,9.95
2022-11-12T06:36:22.622Z,7.82
2022-11-12T06:39:08.271Z,12.13
2022-11-12T06:41:54.704Z,16.70
2022-11-12T06:44:40.095Z,13.80
2022-11-12T06:47:25.661Z,17.42
2022-11-12T06:50:11.664Z,22.45
2022-11-12T06:53:03.587Z,18.80
2022-11-12T06:55:48.875Z,14.27
2022-11-12T06:58:35.212Z,12.60
2022-11-12T07:01:21.202Z,12.68
2022-11-12T07:04:06.764Z,14.45
2022-11-12T07:06:53.609Z,10.32
2022-11-12T07:09:39.109Z,9.50
2022-11-12T07:12:24.917Z,9.23
2022-11-12T07:15:11.016Z,11.23
2022-11-12T07:17:56.633Z,14.48
2022-11-12T07:20:42.594Z,6.85
2022-11-12T07:23:28.930Z,10.65
2022-11-12T07:26:21.745Z,14.05
2022-11-12T07:29:07.371Z,7.60
2022-11-12T07:31:53.037Z,8.15
2022-11-12T07:34:38.836Z,11.73
2022-11-12T07:37:24.230Z,8.65
2022-11-12T07:40:10.274Z,8.75
2022-11-12T07:42:55.795Z,8.57
2022-11-12T07:45:41.382Z,10.63
2022-11-12T07:48:28.782Z,7.75
2022-11-12T07:51:17.258Z,8.18
2022-11-12T07:54:02.627Z,11.02
2022-11-12T07:56:48.060Z,9.88
2022-11-12T07:59:33.794Z,7.18
2022-11-12T08:02:19.584Z,11.30
2022-11-12T08:05:12.021Z,9.98
2022-11-12T08:08:01.271Z,14.50
2022-11-12T08:10:47.248Z,11.77
2022-11-12T08:13:33.086Z,12.93
2022-11-12T08:16:18.825Z,7.78
2022-11-12T08:19:04.551Z,10.07
2022-11-12T08:21:49.946Z,12.95
2022-11-12T08:24:35.386Z,15.60
2022-11-12T08:27:21.246Z,12.88
2022-11-12T08:30:08.116Z,12.43
2022-11-12T08:33:02.771Z,10.68
2022-11-12T08:35:48.565Z,10.02
2022-11-12T08:38:34.697Z,15.25
2022-11-12T08:41:20.024Z,6.18
2022-11-12T08:44:08.716Z,10.80
2022-11-12T08:46:54.875Z,14.13
2022-11-12T08:49:46.688Z,8.40
2022-11-12T08:52:33.584Z,7.80
2022-11-12T08:55:19.414Z,7.90
2022-11-12T08:58:06.723Z,11.48
2022-11-12T09:00:53.741Z,8.68
2022-11-12T09:03:39.532Z,7.13
2022-11-12T09:06:25.370Z,9.75
2022-11-12T09:09:10.890Z,8.90
2022-11-12T09:11:56.719Z,7.75
2022-11-12T09:14:42.420Z,9.05
2022-11-12T09:17:29.269Z,7.07
2022-11-12T09:20:15.181Z,8.10
2022-11-12T09:23:03.615Z,6.32
2022-11-12T09:25:49.017Z,6.70
2022-11-12T09:28:34.812Z,8.05
2022-11-12T09:31:20.677Z,9.73
2022-11-12T09:34:06.198Z,8.05
2022-11-12T09:36:51.922Z,7.35
2022-11-12T09:39:37.489Z,9.82
2022-11-12T09:42:23.883Z,8.00
2022-11-12T09:45:22.490Z,7.60
2022-11-12T09:48:12.155Z,7.63
2022-11-12T09:51:10.645Z,7.50
2022-11-12T09:53:58.580Z,8.82
2022-11-12T09:56:44.279Z,6.75
2022-11-12T09:59:41.999Z,8.73
2022-11-12T10:02:36.138Z,6.30
2022-11-12T10:05:47.211Z,6.57
2022-11-12T10:08:48.569Z,6.47
2022-11-12T10:12:03.879Z,7.75
2022-11-12T10:14:53.364Z,5.28
2022-11-12T10:17:47.772Z,5.22
2022-11-12T10:21:09.321Z,8.10
2022-11-12T10:23:55.199Z,3.60
2022-11-12T10:26:41.068Z,3.65
2022-11-12T10:29:40.659Z,7.78
2022-11-12T10:32:26.560Z,4.40
2022-11-12T10:35:18.524Z,11.10
2022-11-12T10:38:12.758Z,5.13
2022-11-12T10:40:58.464Z,4.68
2022-11-12T10:43:55.728Z,11.82
2022-11-12T10:46:41.696Z,5.20
2022-11-12T10:49:27.401Z,4.38
2022-11-12T10:52:24.478Z,6.13
2022-11-12T10:55:22.986Z,7.65
2022-11-12T10:58:11.502Z,5.85
2022-11-12T11:01:04.806Z,4.88
2022-11-12T11:03:56.152Z,5.70
2022-11-12T11:06:41.830Z,5.07
2022-11-12T11:09:27.895Z,6.20
2022-11-12T11:12:23.747Z,4.22
2022-11-12T11:15:21.403Z,4.57
2022-11-12T11:18:12.818Z,3.42
2022-11-12T11:21:16.700Z,4.65
2022-11-12T11:24:20.775Z,6.10
2022-11-12T11:27:28.183Z,6.25
2022-11-12T11:30:19.067Z,6.32
2022-11-12T11:33:16.055Z,5.13
2022-11-12T11:36:09.997Z,5.70
2022-11-12T11:39:25.428Z,3.15
2022-11-12T11:42:23.730Z,7.72
2022-11-12T11:45:28.007Z,5.10
2022-11-12T11:48:35.982Z,6.47
2022-11-12T11:51:47.563Z,4.68
2022-11-12T11:55:08.154Z,4.32
2022-11-12T11:58:17.646Z,6.45
2022-11-12T12:01:28.673Z,4.90
2022-11-12T12:04:39.177Z,3.33
2022-11-12T12:07:27.406Z,3.33
2022-11-12T12:10:40.205Z,3.95
2022-11-12T12:14:04.204Z,3.92
2022-11-12T12:17:21.801Z,5.15
2022-11-12T12:20:30.314Z,2.33
2022-11-12T12:23:34.081Z,3.95
2022-11-12T12:26:44.251Z,4.70
2022-11-12T12:29:44.251Z,3.55
2022-11-12T12:32:33.574Z,5.57
2022-11-12T12:35:34.915Z,5.50
2022-11-12T12:38:26.349Z,6.72
2022-11-12T12:44:25.784Z,5.80
2022-11-12T12:47:13.989Z,3.92
2022-11-12T12:50:05.359Z,3.95
2022-11-12T12:53:16.008Z,5.07
2022-11-12T12:56:09.045Z,4.00
2022-11-12T12:58:55.826Z,6.75
2022-11-12T13:01:41.431Z,7.47
2022-11-12T13:04:53.712Z,5.63
2022-11-12T13:07:39.481Z,4.65
2022-11-12T13:10:47.225Z,6.35
2022-11-12T13:13:38.871Z,5.53
2022-11-12T13:16:52.204Z,5.35
2022-11-12T13:19:53.941Z,5.38
2022-11-12T13:22:41.921Z,6.63
2022-11-12T13:25:32.439Z,4.75
2022-11-12T13:28:21.960Z,5.10
2022-11-12T13:31:28.523Z,6.38
2022-11-12T13:34:22.281Z,5.53
2022-11-12T13:37:19.205Z,6.00
2022-11-12T13:40:09.791Z,7.13
2022-11-12T13:43:03.511Z,4.13
2022-11-12T13:45:58.163Z,3.60
2022-11-12T13:48:46.673Z,8.18
2022-11-12T13:51:39.282Z,6.32
2022-11-12T13:57:15.503Z,5.60
2022-11-12T14:00:22.469Z,7.50
2022-11-12T14:03:08.268Z,5.95
2022-11-12T14:05:58.705Z,4.53
2022-11-12T14:09:26.042Z,4.90
2022-11-12T14:12:46.022Z,7.43
2022-11-12T14:15:41.044Z,4.35
2022-11-12T14:18:45.021Z,4.80
2022-11-12T14:21:30.979Z,5.72
2022-11-12T14:24:16.474Z,6.47
2022-11-12T14:27:02.378Z,8.73
2022-11-12T14:29:48.013Z,5.60
2022-11-12T14:32:42.014Z,5.47
2022-11-12T14:35:32.031Z,9.20
2022-11-12T14:38:22.076Z,4.93
2022-11-12T14:41:19.523Z,6.72
2022-11-12T14:44:15.196Z,8.05
2022-11-12T14:47:01.671Z,8.23
2022-11-12T14:49:49.449Z,5.93
2022-11-12T14:52:41.605Z,9.10
2022-11-12T14:55:32.661Z,6.78
2022-11-12T14:58:20.256Z,8.43
2022-11-12T15:02:32.529Z,7.60
2022-11-12T15:05:17.272Z,6.28
2022-11-12T15:08:24.990Z,6.43
2022-11-12T15:11:28.578Z,7.28
2022-11-12T15:14:24.340Z,7.80
2022-11-12T15:17:33.790Z,9.60
2022-11-12T15:20:20.454Z,11.18
2022-11-12T15:23:13.827Z,10.60
2022-11-12T15:26:01.201Z,6.43
2022-11-12T15:29:12.224Z,11.85
2022-11-12T15:32:14.064Z,9.30
2022-11-12T15:35:00.004Z,7.70
2022-11-12T15:37:46.062Z,7.55
2022-11-12T15:40:33.138Z,9.02
2022-11-12T15:43:30.156Z,9.68
2022-11-12T15:46:16.567Z,17.27
2022-11-12T15:49:02.263Z,43.88
2022-11-12T15:51:48.210Z,25.00
2022-11-12T15:54:39.720Z,15.07
2022-11-12T15:57:30.678Z,14.27
2022-11-12T16:00:32.857Z,12.27
2022-11-12T16:06:09.310Z,8.15
2022-11-12T16:08:55.404Z,10.80
2022-11-12T16:11:41.645Z,9.25
2022-11-12T16:14:27.776Z,10.73
2022-11-12T16:17:17.946Z,7.88
2022-11-12T16:20:13.155Z,9.52
2022-11-12T16:23:01.152Z,9.07
2022-11-12T16:25:47.392Z,6.93
2022-11-12T16:28:33.355Z,21.17
2022-11-12T16:31:20.896Z,28.50
2022-11-12T16:34:06.764Z,26.15
2022-11-12T16:36:52.831Z,22.27
2022-11-12T16:39:38.602Z,25.17
2022-11-12T16:42:24.480Z,18.27
2022-11-12T16:45:10.124Z,15.10
2022-11-12T16:47:56.192Z,14.05
2022-11-12T16:50:41.802Z,11.00
2022-11-12T16:53:27.829Z,13.55
2022-11-12T16:56:22.242Z,7.78
2022-11-12T16:59:10.906Z,9.98
2022-11-12T17:01:56.365Z,8.15
2022-11-12T17:04:41.815Z,7.80
2022-11-12T17:07:27.496Z,9.45
2022-11-12T17:10:14.710Z,9.93
2022-11-12T17:13:00.348Z,7.75
2022-11-12T17:15:57.865Z,8.73
2022-11-12T17:18:43.282Z,13.82
2022-11-12T17:21:29.224Z,16.90
2022-11-12T17:24:15.015Z,42.10
2022-11-12T17:27:03.917Z,31.08
2022-11-12T17:29:49.322Z,18.40
2022-11-12T17:32:34.782Z,18.42
2022-11-12T17:35:20.411Z,14.20
2022-11-12T17:38:06.293Z,11.90
2022-11-12T17:40:56.082Z,8.27
2022-11-12T17:43:42.217Z,10.00
2022-11-12T17:46:29.030Z,10.18
2022-11-12T17:49:15.663Z,13.50
2022-11-12T17:52:01.182Z,11.23
2022-11-12T17:54:47.215Z,8.77
2022-11-12T17:57:33.070Z,7.18
2022-11-12T18:00:19.268Z,12.13
2022-11-12T18:03:06.153Z,11.38
2022-11-12T18:05:59.634Z,10.20
2022-11-12T18:08:45.675Z,7.53
2022-11-12T18:11:47.996Z,11.43
2022-11-12T18:14:34.415Z,13.15
2022-11-12T18:17:19.982Z,14.77
2022-11-12T18:20:09.458Z,12.20
2022-11-12T18:22:56.859Z,10.18
2022-11-12T18:25:42.982Z,12.77
2022-11-12T18:28:30.157Z,10.77
2022-11-12T18:31:19.428Z,11.18
2022-11-12T18:34:06.953Z,8.80
2022-11-12T18:36:55.697Z,14.20
2022-11-12T18:39:41.520Z,10.05
2022-11-12T18:42:28.916Z,7.07
2022-11-12T18:45:14.955Z,10.68
2022-11-12T18:48:04.075Z,10.80
2022-11-12T18:50:50.067Z,12.90
2022-11-12T18:53:38.156Z,13.75
2022-11-12T18:56:25.069Z,10.88
2022-11-12T18:59:13.965Z,7.05
2022-11-12T19:02:05.214Z,5.68
2022-11-12T19:04:51.162Z,7.80
2022-11-12T19:07:36.955Z,7.40
2022-11-12T19:10:23.320Z,10.10
2022-11-12T19:13:09.230Z,7.95
2022-11-12T19:15:56.390Z,8.77
2022-11-12T19:18:46.101Z,11.27
2022-11-12T19:21:31.756Z,8.80
2022-11-12T19:24:17.730Z,10.82
2022-11-12T19:27:04.053Z,23.90
2022-11-12T19:29:50.430Z,13.30
2022-11-12T19:32:36.653Z,10.05
2022-11-12T19:35:22.403Z,7.20
2022-11-12T19:38:08.390Z,8.07
2022-11-12T19:40:56.721Z,6.97
2022-11-12T19:43:42.616Z,9.70
2022-11-12T19:46:28.155Z,8.68
2022-11-12T19:49:14.035Z,7.53
2022-11-12T19:51:59.725Z,8.02
2022-11-12T19:54:48.173Z,8.55
2022-11-12T19:57:33.820Z,7.35
2022-11-12T20:00:20.035Z,9.05
2022-11-12T20:03:08.356Z,8.48
2022-11-12T20:05:59.443Z,8.48
2022-11-12T20:08:46.067Z,7.57
2022-11-12T20:11:31.852Z,13.60
2022-11-12T20:14:17.475Z,11.57
2022-11-12T20:17:04.946Z,9.38
2022-11-12T20:19:51.152Z,14.30
2022-11-12T20:22:37.095Z,18.90
2022-11-12T20:25:22.738Z,15.88
2022-11-12T20:28:09.093Z,13.73
2022-11-12T20:31:01.858Z,10.57
2022-11-12T20:33:50.045Z,13.15
2022-11-12T20:36:35.434Z,10.50
2022-11-12T20:39:21.723Z,12.68
2022-11-12T20:42:07.402Z,17.27
2022-11-12T20:44:53.715Z,14.25
2022-11-12T20:47:42.028Z,12.23
2022-11-12T20:50:28.667Z,11.85
2022-11-12T20:53:14.314Z,11.43
2022-11-12T20:56:18.163Z,12.98
2022-11-12T20:59:04.037Z,7.55
2022-11-12T21:01:50.126Z,10.98
2022-11-12T21:04:35.880Z,9.32
2022-11-12T21:07:24.379Z,11.93
2022-11-12T21:10:10.405Z,13.60
2022-11-12T21:12:56.511Z,9.88
2022-11-12T21:15:46.253Z,11.52
2022-11-12T21:18:33.213Z,9.82
2022-11-12T21:21:21.544Z,10.73
2022-11-12T21:24:07.738Z,8.63
2022-11-12T21:26:53.102Z,7.82
2022-11-12T21:29:41.423Z,9.18
2022-11-12T21:32:27.455Z,11.70
2022-11-12T21:35:13.401Z,7.55
2022-11-12T21:37:59.646Z,10.10
2022-11-12T21:40:45.449Z,12.88
2022-11-12T21:43:31.290Z,11.65
2022-11-12T21:46:20.433Z,14.90
2022-11-12T21:49:06.620Z,8.98
2022-11-12T21:51:52.034Z,11.07
2022-11-12T21:54:38.098Z,14.35
2022-11-12T21:57:23.730Z,12.20
2022-11-12T22:00:39.889Z,12.77
2022-11-12T22:03:15.720Z,15.40
2022-11-12T22:06:02.052Z,8.02
2022-11-12T22:08:47.395Z,9.25
2022-11-12T22:11:33.416Z,10.93
2022-11-12T22:14:19.081Z,8.70
2022-11-12T22:17:06.159Z,11.23
2022-11-12T22:19:51.807Z,7.78
2022-11-12T22:22:37.519Z,9.93
2022-11-12T22:25:23.332Z,11.30
2022-11-12T22:28:08.783Z,7.45
2022-11-12T22:30:54.639Z,12.57
2022-11-12T22:33:40.344Z,11.75
2022-11-12T22:36:28.933Z,10.90
2022-11-12T22:39:14.611Z,11.23
2022-11-12T22:42:00.582Z,16.45
2022-11-12T22:44:45.955Z,23.20
2022-11-12T22:47:33.355Z,17.75
2022-11-12T22:50:18.846Z,24.50
2022-11-12T22:53:04.579Z,18.38
2022-11-12T22:55:50.283Z,17.50
2022-11-12T22:58:40.457Z,13.68
2022-11-12T23:01:28.003Z,22.35
2022-11-12T23:04:13.705Z,16.90
2022-11-12T23:06:59.880Z,17.98
2022-11-12T23:09:45.535Z,12.93
2022-11-12T23:12:31.043Z,15.77
2022-11-12T23:15:16.835Z,16.30
2022-11-12T23:18:02.484Z,13.20
2022-11-12T23:20:48.230Z,19.88
2022-11-12T23:23:35.389Z,15.70
2022-11-12T23:26:23.887Z,17.70
2022-11-12T23:29:11.726Z,14.82
2022-11-12T23:31:57.808Z,17.42
2022-11-12T23:34:43.563Z,19.27
2022-11-12T23:37:29.319Z,16.83
2022-11-12T23:40:15.429Z,11.07
2022-11-12T23:43:01.556Z,15.18
2022-11-12T23:45:50.397Z,18.33
2022-11-12T23:48:35.970Z,14.27
2022-11-12T23:51:22.795Z,11.93
2022-11-12T23:54:10.193Z,11.40
2022-11-12T23:56:56.076Z,10.50
2022-11-12T23:59:41.385Z,11.38
